Time;durP1;ratioP1;P1;durP2;ratioP2;P2;SDS_P1;SDS_P2;PMS_P1;PMS_P2;Temp;Humidity;BMP_temperature;BMP_pressure;BME280_temperature;BME280_humidity;BME280_pressure;Samples;Min_cycle;Max_cycle;Signal;HPM_P1;HPM_P2
2024/03/10 00:01:06;;;;;;;9.05;5.05;;;;;;;3.64;100.00;95266.88;5056732;28;20048;-63
2024/03/10 00:03:32;;;;;;;10.65;5.22;;;;;;;3.76;100.00;95261.31;5057591;28;20068;-63
2024/03/10 00:05:59;;;;;;;8.90;4.90;;;;;;;3.80;100.00;95266.16;5065042;28;20044;-63
2024/03/10 00:08:26;;;;;;;8.73;4.53;;;;;;;3.85;100.00;95266.19;5058584;28;20046;-63
2024/03/10 00:10:52;;;;;;;9.55;4.93;;;;;;;3.74;100.00;95268.00;5066367;28;20123;-62
2024/03/10 00:13:19;;;;;;;11.65;4.70;;;;;;;3.92;100.00;95263.25;5062063;28;20133;-63
2024/03/10 00:15:46;;;;;;;10.73;5.50;;;;;;;4.00;100.00;95262.75;5071400;28;20527;-62
2024/03/10 00:18:12;;;;;;;6.57;3.92;;;;;;;3.91;100.00;95259.78;5054454;28;20862;-63
2024/03/10 00:20:39;;;;;;;7.50;4.40;;;;;;;3.92;100.00;95271.28;5060266;28;20036;-63
2024/03/10 00:23:06;;;;;;;10.00;5.35;;;;;;;3.81;100.00;95262.41;5061182;28;20058;-63
2024/03/10 00:25:32;;;;;;;8.13;4.72;;;;;;;3.67;100.00;95264.75;5056157;28;20044;-63
2024/03/10 00:27:59;;;;;;;10.85;4.85;;;;;;;3.69;100.00;95265.31;5071073;28;20133;-63
2024/03/10 00:30:25;;;;;;;8.30;4.30;;;;;;;3.73;100.00;95266.41;5064873;28;20120;-62
2024/03/10 00:32:52;;;;;;;8.50;4.38;;;;;;;3.73;100.00;95255.69;5058539;28;20064;-63
2024/03/10 00:35:19;;;;;;;7.97;4.32;;;;;;;3.79;100.00;95259.19;5064403;28;20036;-62
2024/03/10 00:37:46;;;;;;;7.10;4.20;;;;;;;3.71;100.00;95258.63;5062812;28;20044;-62
2024/03/10 00:40:14;;;;;;;7.15;4.07;;;;;;;3.76;100.00;95253.28;5073598;28;20054;-62
2024/03/10 00:42:42;;;;;;;8.02;3.90;;;;;;;3.84;100.00;95259.22;5060191;28;20711;-62
2024/03/10 00:45:09;;;;;;;8.30;3.80;;;;;;;3.77;100.00;95252.22;5066811;28;20043;-63
2024/03/10 00:47:39;;;;;;;7.78;4.15;;;;;;;3.75;100.00;95250.88;5055402;28;20106;-62
2024/03/10 00:50:08;;;;;;;8.05;3.72;;;;;;;3.79;100.00;95248.50;5060225;28;20458;-63
2024/03/10 00:52:37;;;;;;;7.20;3.88;;;;;;;3.80;100.00;95247.41;5058709;28;20052;-62
2024/03/10 00:55:07;;;;;;;7.05;3.92;;;;;;;3.82;100.00;95253.31;5062336;28;20465;-62
2024/03/10 00:57:34;;;;;;;8.27;4.13;;;;;;;3.81;100.00;95254.38;5057377;28;20222;-62
2024/03/10 01:00:01;;;;;;;7.38;3.72;;;;;;;3.82;100.00;95243.41;5062541;28;20040;-62
2024/03/10 01:02:27;;;;;;;8.70;3.70;;;;;;;3.96;100.00;95235.72;5061042;28;20043;-62
2024/03/10 01:04:55;;;;;;;6.90;3.78;;;;;;;3.91;100.00;95246.41;5067962;28;20499;-62
2024/03/10 01:07:21;;;;;;;6.28;3.45;;;;;;;3.92;100.00;95242.66;5057840;28;20048;-62
2024/03/10 01:09:48;;;;;;;6.82;4.00;;;;;;;3.99;100.00;95235.19;5067496;28;20119;-62
2024/03/10 01:12:14;;;;;;;7.65;4.10;;;;;;;3.99;100.00;95235.19;5059352;28;20044;-62
2024/03/10 01:14:41;;;;;;;7.85;3.90;;;;;;;3.90;100.00;95231.38;5066373;28;20029;-62
2024/03/10 01:17:08;;;;;;;5.93;3.72;;;;;;;3.88;100.00;95236.22;5067830;28;20093;-62
2024/03/10 01:19:35;;;;;;;6.95;3.97;;;;;;;3.89;100.00;95243.16;5064227;28;20044;-62
2024/03/10 01:22:02;;;;;;;6.97;3.60;;;;;;;3.94;100.00;95242.41;5067666;28;20086;-62
2024/03/10 01:24:28;;;;;;;5.50;3.13;;;;;;;4.07;100.00;95231.19;5063213;28;20036;-62
2024/03/10 01:26:55;;;;;;;7.78;4.18;;;;;;;4.11;100.00;95228.78;5074103;28;20045;-62
2024/03/10 01:29:22;;;;;;;7.15;3.08;;;;;;;4.12;100.00;95225.03;5067140;28;20044;-62
2024/03/10 01:31:49;;;;;;;6.38;3.58;;;;;;;4.02;100.00;95221.25;5068826;28;20041;-62
2024/03/10 01:34:16;;;;;;;6.60;3.42;;;;;;;4.04;100.00;95223.66;5073100;28;20058;-62
2024/03/10 01:36:42;;;;;;;8.45;3.90;;;;;;;3.99;100.00;95215.63;5072826;28;20047;-62
2024/03/10 01:39:09;;;;;;;5.93;3.03;;;;;;;4.02;100.00;95212.44;5066533;28;20044;-62
2024/03/10 01:41:35;;;;;;;6.13;3.22;;;;;;;4.03;100.00;95212.16;5064923;28;20844;-62
2024/03/10 01:44:02;;;;;;;8.93;4.20;;;;;;;4.16;100.00;95213.53;5064551;28;20051;-62
2024/03/10 01:46:29;;;;;;;6.93;3.55;;;;;;;4.06;100.00;95212.69;5069550;28;20044;-62
2024/03/10 01:48:56;;;;;;;6.40;3.83;;;;;;;3.82;100.00;95213.16;5060929;28;20071;-62
2024/03/10 01:51:22;;;;;;;6.72;3.53;;;;;;;3.81;100.00;95216.91;5058075;28;20659;-62
2024/03/10 01:53:51;;;;;;;6.72;3.35;;;;;;;3.75;100.00;95208.03;5061381;28;20037;-61
2024/03/10 01:56:18;;;;;;;7.15;3.65;;;;;;;3.80;100.00;95201.91;5059519;28;20044;-61
2024/03/10 01:58:45;;;;;;;6.38;3.60;;;;;;;3.89;100.00;95200.31;5065552;28;20126;-62
2024/03/10 02:01:16;;;;;;;6.95;3.63;;;;;;;3.82;100.00;95195.22;5066232;28;20458;-61
2024/03/10 02:03:46;;;;;;;7.18;3.70;;;;;;;3.79;100.00;95189.59;5060023;28;20037;-62
2024/03/10 02:06:12;;;;;;;6.45;3.58;;;;;;;3.66;100.00;95186.34;5072928;28;20043;-61
2024/03/10 02:08:41;;;;;;;7.78;3.45;;;;;;;3.53;100.00;95190.28;5060554;28;20090;-61
2024/03/10 02:11:10;;;;;;;6.28;3.53;;;;;;;3.57;100.00;95187.91;5064257;28;20097;-62
2024/03/10 02:13:37;;;;;;;10.63;3.83;;;;;;;3.54;100.00;95186.53;5062957;28;20056;-62
2024/03/10 02:16:08;;;;;;;6.13;3.53;;;;;;;3.48;100.00;95185.72;5065889;28;20044;-62
2024/03/10 02:18:35;;;;;;;9.23;4.03;;;;;;;3.39;100.00;95181.91;5060665;28;20072;-62
2024/03/10 02:21:08;;;;;;;6.32;3.45;;;;;;;3.42;100.00;95175.28;5064524;28;20045;-62
2024/03/10 02:23:40;;;;;;;8.00;3.92;;;;;;;3.45;100.00;95172.88;5057860;28;20404;-63
2024/03/10 02:26:10;;;;;;;7.05;4.03;;;;;;;3.42;100.00;95176.06;5065526;28;20109;-62
2024/03/10 02:28:56;;;;;;;5.43;3.17;;;;;;;3.43;100.00;95166.97;5056603;28;20589;-62
2024/03/10 02:47:59;;;;;;;7.07;4.50;;;;;;;3.32;100.00;95134.00;5068321;28;20051;-62
2024/03/10 02:50:26;;;;;;;7.72;4.28;;;;;;;3.33;100.00;95130.28;5066056;28;20119;-62
2024/03/10 02:52:52;;;;;;;7.72;4.10;;;;;;;3.38;100.00;95142.88;5064341;28;20174;-62
2024/03/10 02:55:19;;;;;;;7.70;4.25;;;;;;;3.36;100.00;95150.34;5059782;28;20036;-62
2024/03/10 02:57:47;;;;;;;7.97;4.50;;;;;;;3.42;100.00;95146.63;5061958;28;20060;-62
2024/03/10 03:00:15;;;;;;;10.40;4.38;;;;;;;3.46;100.00;95149.59;5066277;28;20068;-62
2024/03/10 03:02:42;;;;;;;7.97;4.57;;;;;;;3.56;100.00;95144.28;5064095;28;20051;-62
2024/03/10 03:05:08;;;;;;;6.50;3.75;;;;;;;3.68;100.00;95136.00;5056849;28;20060;-62
2024/03/10 03:07:35;;;;;;;8.77;3.80;;;;;;;3.76;100.00;95124.78;5062334;28;20041;-62
2024/03/10 03:10:02;;;;;;;7.88;4.10;;;;;;;3.75;100.00;95123.19;5065006;28;20571;-63
2024/03/10 03:12:28;;;;;;;6.25;3.47;;;;;;;3.59;100.00;95118.88;5062936;28;20090;-61
2024/03/10 03:14:55;;;;;;;11.38;4.85;;;;;;;3.39;100.00;95115.03;5070447;28;20033;-61
2024/03/10 03:17:23;;;;;;;7.50;4.50;;;;;;;3.40;100.00;95102.47;5060872;28;20040;-62
2024/03/10 03:19:50;;;;;;;7.75;4.07;;;;;;;3.41;100.00;95102.22;5057691;28;20084;-62
2024/03/10 03:22:17;;;;;;;6.88;4.20;;;;;;;3.41;100.00;95101.41;5063834;28;20055;-62
2024/03/10 03:24:44;;;;;;;10.23;4.57;;;;;;;3.40;100.00;95086.44;5061199;28;20037;-62
2024/03/10 03:27:10;;;;;;;9.82;4.70;;;;;;;3.53;100.00;95091.28;5064373;28;20071;-62
2024/03/10 03:29:37;;;;;;;10.70;5.32;;;;;;;3.46;100.00;95101.44;5055946;28;20064;-62
2024/03/10 03:32:05;;;;;;;10.52;4.32;;;;;;;3.42;100.00;95084.31;5069464;28;20032;-62
2024/03/10 03:34:33;;;;;;;9.73;4.90;;;;;;;3.54;100.00;95076.03;5060516;28;20095;-62
2024/03/10 03:37:00;;;;;;;7.10;4.05;;;;;;;3.52;100.00;95084.31;5068249;28;20047;-62
2024/03/10 03:39:26;;;;;;;11.02;4.70;;;;;;;3.68;100.00;95077.13;5057155;28;20055;-62
2024/03/10 03:41:53;;;;;;;9.82;4.47;;;;;;;3.66;100.00;95065.09;5062063;28;20049;-62
2024/03/10 03:44:19;;;;;;;9.63;4.97;;;;;;;3.51;100.00;95069.34;5063592;28;20510;-62
2024/03/10 03:46:46;;;;;;;9.60;4.88;;;;;;;3.49;100.00;95066.13;5065515;28;20040;-62
2024/03/10 03:49:13;;;;;;;7.50;4.20;;;;;;;3.45;100.00;95065.03;5065788;28;20058;-62
2024/03/10 03:51:42;;;;;;;8.13;4.70;;;;;;;3.22;100.00;95062.56;5065204;28;20487;-62
2024/03/10 03:54:09;;;;;;;8.05;4.55;;;;;;;3.09;100.00;95068.38;5060437;28;20124;-62
2024/03/10 03:56:36;;;;;;;9.65;5.20;;;;;;;3.09;100.00;95074.53;5057348;28;20045;-62
2024/03/10 03:59:03;;;;;;;9.00;5.30;;;;;;;3.15;100.00;95061.19;5065583;28;20438;-62
2024/03/10 04:01:30;;;;;;;11.15;5.70;;;;;;;3.16;100.00;95060.16;5059289;28;20057;-62
2024/03/10 04:03:57;;;;;;;13.82;5.70;;;;;;;3.13;100.00;95066.78;5064140;28;20063;-62
2024/03/10 04:06:23;;;;;;;8.40;4.93;;;;;;;3.10;100.00;95065.44;5064334;28;20458;-62
2024/03/10 04:08:53;;;;;;;7.60;4.63;;;;;;;3.11;100.00;95051.03;5056341;28;20052;-62
2024/03/10 04:11:24;;;;;;;10.07;5.53;;;;;;;3.19;100.00;95039.03;5062402;28;20491;-62
2024/03/10 04:13:50;;;;;;;10.68;5.50;;;;;;;3.34;100.00;95035.59;5067584;28;20043;-62
2024/03/10 04:16:18;;;;;;;9.00;5.30;;;;;;;3.48;100.00;95014.50;5065102;28;20036;-62
2024/03/10 04:18:44;;;;;;;10.07;5.50;;;;;;;3.32;100.00;95012.84;5061394;28;20611;-62
2024/03/10 04:21:11;;;;;;;10.13;4.63;;;;;;;3.22;100.00;95011.75;5069787;28;20105;-62
2024/03/10 04:23:37;;;;;;;10.73;5.47;;;;;;;3.31;100.00;94995.19;5061150;28;20055;-62
2024/03/10 04:26:04;;;;;;;8.50;5.18;;;;;;;3.32;100.00;94994.91;5072755;28;20032;-62
2024/03/10 04:28:31;;;;;;;8.77;5.22;;;;;;;3.22;100.00;94997.56;5059860;28;20526;-62
2024/03/10 04:30:57;;;;;;;8.80;4.93;;;;;;;3.01;100.00;95002.03;5058400;28;20049;-61
2024/03/10 04:33:25;;;;;;;9.15;4.97;;;;;;;2.99;100.00;95011.13;5066356;28;20037;-62
2024/03/10 04:35:51;;;;;;;11.48;5.72;;;;;;;2.95;100.00;95012.72;5056848;28;20045;-62
2024/03/10 04:38:18;;;;;;;10.82;5.53;;;;;;;2.91;100.00;95013.53;5062591;28;20115;-62
2024/03/10 04:40:45;;;;;;;7.88;5.00;;;;;;;2.67;100.00;95025.44;5058859;28;20033;-62
2024/03/10 04:43:12;;;;;;;10.00;5.57;;;;;;;2.75;100.00;95024.13;5063224;28;20424;-62
2024/03/10 04:45:38;;;;;;;10.70;5.10;;;;;;;2.81;100.00;95016.94;5065456;28;20040;-61
2024/03/10 04:48:08;;;;;;;9.63;5.65;;;;;;;2.83;100.00;95002.25;5060517;28;20040;-64
2024/03/10 04:50:34;;;;;;;9.50;5.57;;;;;;;2.87;100.00;94989.16;5067513;28;20044;-64
2024/03/10 04:53:01;;;;;;;8.05;4.75;;;;;;;2.78;100.00;94982.72;5063506;28;20140;-64
2024/03/10 04:55:29;;;;;;;8.70;5.28;;;;;;;2.76;100.00;94992.88;5068578;28;20072;-62
2024/03/10 04:57:56;;;;;;;8.90;4.82;;;;;;;2.68;100.00;94989.63;5073193;28;20482;-61
2024/03/10 05:00:22;;;;;;;7.55;4.63;;;;;;;2.63;100.00;94997.63;5066782;28;20526;-62
2024/03/10 05:02:49;;;;;;;9.73;5.28;;;;;;;2.66;100.00;95005.13;5066883;28;20041;-62
2024/03/10 05:05:16;;;;;;;7.90;4.55;;;;;;;2.83;100.00;95012.13;5077444;28;20054;-62
2024/03/10 05:07:43;;;;;;;8.45;5.13;;;;;;;2.90;100.00;95015.38;5067035;28;20426;-62
2024/03/10 05:10:10;;;;;;;7.82;4.82;;;;;;;2.93;100.00;95020.22;5062805;28;20040;-62
2024/03/10 05:12:36;;;;;;;14.52;5.95;;;;;;;3.02;100.00;95030.41;5065409;28;20483;-62
2024/03/10 05:15:04;;;;;;;9.43;5.00;;;;;;;3.21;100.00;95020.03;5074458;28;20071;-62
2024/03/10 05:17:30;;;;;;;8.45;4.45;;;;;;;3.24;100.00;95004.25;5071514;28;20036;-62
2024/03/10 05:19:58;;;;;;;8.15;4.80;;;;;;;3.22;100.00;95008.28;5069249;28;20040;-61
2024/03/10 05:22:24;;;;;;;7.15;4.25;;;;;;;3.11;100.00;95010.94;5077376;28;20600;-63
2024/03/10 05:24:51;;;;;;;9.27;4.97;;;;;;;3.02;100.00;95014.38;5061876;28;20048;-62
2024/03/10 05:27:18;;;;;;;9.05;5.25;;;;;;;3.05;100.00;95016.50;5069179;28;20043;-62
2024/03/10 05:29:44;;;;;;;8.75;4.78;;;;;;;3.02;100.00;95012.47;5063815;28;20136;-63
2024/03/10 05:32:11;;;;;;;10.43;5.05;;;;;;;2.84;100.00;95011.88;5071679;28;20062;-62
2024/03/10 05:34:39;;;;;;;8.68;4.80;;;;;;;2.81;100.00;95014.28;5070331;28;20711;-62
2024/03/10 05:37:06;;;;;;;8.68;4.88;;;;;;;2.88;100.00;95009.50;5068630;28;20453;-62
2024/03/10 05:39:32;;;;;;;10.45;5.60;;;;;;;2.89;100.00;95010.28;5064319;28;20045;-62
2024/03/10 05:42:05;;;;;;;9.35;5.20;;;;;;;2.93;100.00;95025.56;5074284;28;20488;-62
2024/03/10 05:44:33;;;;;;;12.55;5.28;;;;;;;2.89;100.00;95027.16;5071619;28;20116;-62
2024/03/10 05:47:00;;;;;;;9.93;5.43;;;;;;;2.88;100.00;95028.22;5069320;28;20036;-62
2024/03/10 05:49:28;;;;;;;12.48;6.57;;;;;;;2.78;100.00;95033.50;5062777;28;20044;-62
2024/03/10 05:51:55;;;;;;;12.80;7.05;;;;;;;2.75;100.00;95039.34;5073292;28;20101;-62
2024/03/10 05:54:21;;;;;;;14.65;6.90;;;;;;;2.71;100.00;95045.25;5067591;28;20040;-62
2024/03/10 05:56:48;;;;;;;17.20;7.05;;;;;;;2.78;100.00;95030.81;5069726;28;20112;-62
2024/03/10 05:59:15;;;;;;;14.65;6.28;;;;;;;2.78;100.00;95036.16;5070623;28;20072;-62
2024/03/10 06:01:42;;;;;;;10.98;5.68;;;;;;;2.66;100.00;95042.53;5068400;28;20067;-62
2024/03/10 06:04:09;;;;;;;11.55;5.53;;;;;;;2.65;100.00;95050.81;5056437;28;20728;-62
2024/03/10 06:06:38;;;;;;;10.25;5.65;;;;;;;2.89;100.00;95045.84;5064707;28;20033;-62
2024/03/10 06:09:10;;;;;;;12.52;6.38;;;;;;;2.69;100.00;95030.53;5059450;28;20674;-62
2024/03/10 06:11:36;;;;;;;10.05;5.30;;;;;;;2.58;100.00;95019.78;5070137;28;20049;-64
2024/03/10 06:14:03;;;;;;;10.27;5.07;;;;;;;2.57;100.00;95023.53;5063542;28;20130;-63
2024/03/10 06:16:30;;;;;;;10.43;5.22;;;;;;;2.53;100.00;95024.28;5054653;28;20044;-64
2024/03/10 06:26:58;;;;;;;8.65;4.95;;;;;;;2.74;100.00;95014.53;5063215;28;20041;-64
2024/03/10 06:29:24;;;;;;;9.63;5.93;;;;;;;2.85;100.00;95008.13;5062876;28;20040;-64
2024/03/10 06:31:51;;;;;;;10.20;5.50;;;;;;;2.90;100.00;95009.22;5057526;28;20041;-67
2024/03/10 06:34:18;;;;;;;8.98;4.90;;;;;;;2.82;100.00;95018.56;5060750;28;20044;-66
2024/03/10 06:36:48;;;;;;;7.95;4.80;;;;;;;2.85;100.00;95018.03;5061037;28;20044;-68
2024/03/10 06:39:19;;;;;;;7.97;4.55;;;;;;;3.01;100.00;95010.06;5053741;28;20102;-66
2024/03/10 06:41:49;;;;;;;8.82;4.90;;;;;;;3.05;100.00;95000.44;5062899;28;20037;-65
2024/03/10 06:44:17;;;;;;;9.65;4.40;;;;;;;2.62;100.00;95016.59;5063684;28;20519;-65
2024/03/10 06:46:44;;;;;;;9.57;5.53;;;;;;;2.64;100.00;95017.13;5061715;28;20087;-67
2024/03/10 06:49:11;;;;;;;8.05;4.47;;;;;;;2.74;100.00;95027.88;5070220;28;20136;-64
2024/03/10 06:51:38;;;;;;;10.80;4.43;;;;;;;2.87;100.00;95026.59;5050518;28;20097;-67
2024/03/10 06:54:05;;;;;;;7.05;4.38;;;;;;;3.00;100.00;95017.31;5039533;28;20550;-66
2024/03/10 06:56:32;;;;;;;9.18;4.93;;;;;;;3.01;100.00;95021.56;5066730;28;20608;-65
2024/03/10 06:58:59;;;;;;;9.18;4.45;;;;;;;3.03;100.00;95021.31;5067813;28;20551;-65
2024/03/10 07:01:25;;;;;;;8.10;4.82;;;;;;;3.27;100.00;95023.53;5048701;28;20555;-65
2024/03/10 07:03:56;;;;;;;7.18;4.40;;;;;;;3.42;100.00;95018.22;5056038;28;20531;-65
2024/03/10 07:06:22;;;;;;;10.63;4.40;;;;;;;3.45;100.00;95014.19;5072155;28;20148;-65
2024/03/10 07:08:49;;;;;;;7.22;4.07;;;;;;;3.36;100.00;95003.22;5057396;28;20064;-66
2024/03/10 07:11:16;;;;;;;6.18;3.70;;;;;;;3.45;100.00;95003.50;5059027;28;20047;-65
2024/03/10 07:13:43;;;;;;;8.18;4.72;;;;;;;3.49;100.00;95000.03;5068803;28;20044;-65
2024/03/10 07:16:09;;;;;;;8.13;4.88;;;;;;;3.53;100.00;94994.16;5063026;28;20032;-66
2024/03/10 07:18:37;;;;;;;9.23;4.65;;;;;;;3.28;100.00;94993.84;5060443;28;20048;-66
2024/03/10 07:21:05;;;;;;;7.03;4.13;;;;;;;3.30;100.00;94993.56;5067381;28;20077;-66
2024/03/10 07:23:31;;;;;;;9.27;5.07;;;;;;;3.44;100.00;94992.00;5057368;28;20052;-66
2024/03/10 07:25:58;;;;;;;9.38;5.18;;;;;;;3.53;100.00;94996.84;5070524;28;20478;-66
2024/03/10 07:28:26;;;;;;;8.43;5.13;;;;;;;3.51;100.00;94992.53;5064035;28;20064;-66
2024/03/10 07:30:54;;;;;;;7.25;4.28;;;;;;;3.60;100.00;94987.47;5062967;28;20051;-65
2024/03/10 07:33:20;;;;;;;9.13;5.18;;;;;;;3.75;100.00;94980.50;5069462;28;20048;-65
2024/03/10 07:35:47;;;;;;;8.80;4.85;;;;;;;3.85;100.00;94977.84;5064421;28;20045;-65
2024/03/10 07:38:13;;;;;;;7.63;4.72;;;;;;;4.01;100.00;94954.53;5065517;28;20037;-66
2024/03/10 07:40:40;;;;;;;7.63;4.78;;;;;;;4.17;100.00;94949.19;5065879;28;20118;-65
2024/03/10 07:43:06;;;;;;;8.73;5.40;;;;;;;4.34;100.00;94942.69;5066666;28;20044;-66
2024/03/10 07:45:34;;;;;;;9.10;5.43;;;;;;;4.57;100.00;94935.13;5067101;28;20044;-66
2024/03/10 07:48:03;;;;;;;7.72;4.90;;;;;;;4.86;100.00;94943.31;5071535;28;20039;-66
2024/03/10 07:50:30;;;;;;;10.38;5.13;;;;;;;4.98;100.00;94961.78;5062521;28;20487;-66
2024/03/10 07:52:56;;;;;;;7.43;4.72;;;;;;;5.06;100.00;94979.94;5069585;28;20049;-66
2024/03/10 07:55:24;;;;;;;9.25;4.72;;;;;;;5.36;100.00;94990.81;5055317;28;20539;-66
2024/03/10 07:57:51;;;;;;;8.15;4.53;;;;;;;5.64;100.00;94995.75;5059011;28;20048;-66
2024/03/10 08:00:21;;;;;;;6.53;3.83;;;;;;;5.95;100.00;95003.56;5063190;28;20056;-66
2024/03/10 08:02:49;;;;;;;;;;;;;;;6.19;100.00;95010.94;5057924;28;20206;-65
2024/03/10 08:05:16;;;;;;;6.63;3.78;;;;;;;6.45;100.00;95018.78;5058698;28;19955;-64
2024/03/10 08:07:43;;;;;;;6.90;3.25;;;;;;;6.64;100.00;95011.56;5061634;28;20140;-67
2024/03/10 08:10:15;;;;;;;5.40;3.20;;;;;;;6.67;100.00;95012.88;5055028;28;20045;-67
2024/03/10 08:12:47;;;;;;;5.60;3.28;;;;;;;6.82;100.00;95019.97;5059345;28;20102;-65
2024/03/10 08:15:18;;;;;;;6.60;3.63;;;;;;;6.97;100.00;95026.31;5064701;28;20071;-65
2024/03/10 08:17:45;;;;;;;6.63;3.20;;;;;;;7.13;100.00;95019.66;5068366;28;20108;-65
2024/03/10 08:20:13;;;;;;;5.28;3.33;;;;;;;7.29;100.00;95019.44;5058837;28;20118;-66
2024/03/10 08:22:42;;;;;;;6.05;3.45;;;;;;;7.49;100.00;95012.97;5065159;28;20083;-65
2024/03/10 08:25:09;;;;;;;5.80;3.17;;;;;;;7.42;100.00;95016.03;5064398;28;20609;-66
2024/03/10 08:27:36;;;;;;;5.75;3.13;;;;;;;7.46;100.00;94997.44;5062546;28;20032;-66
2024/03/10 08:30:04;;;;;;;6.55;3.35;;;;;;;7.62;100.00;94986.41;5058199;28;20044;-65
2024/03/10 08:32:30;;;;;;;9.60;4.97;;;;;;;7.75;100.00;94983.00;5058543;28;20076;-66
2024/03/10 08:34:57;;;;;;;7.53;3.10;;;;;;;7.60;100.00;94994.81;5061091;28;20443;-65
2024/03/10 08:37:24;;;;;;;6.70;2.90;;;;;;;7.61;100.00;94985.63;5057860;28;20111;-65
2024/03/10 08:39:50;;;;;;;4.93;2.80;;;;;;;7.70;100.00;94972.28;5059801;28;20543;-67
2024/03/10 08:42:18;;;;;;;5.68;2.80;;;;;;;7.62;100.00;94963.00;5058991;28;20036;-67
2024/03/10 08:44:45;;;;;;;7.00;3.38;;;;;;;7.83;100.00;94956.47;5066444;28;21189;-65
2024/03/10 08:47:12;;;;;;;5.32;3.08;;;;;;;8.00;100.00;94962.13;5062324;28;20032;-66
2024/03/10 08:49:38;;;;;;;6.57;2.70;;;;;;;7.92;100.00;94963.59;5061691;28;20041;-65
2024/03/10 08:52:08;;;;;;;5.35;2.55;;;;;;;7.96;100.00;94971.09;5068233;28;20116;-65
2024/03/10 08:54:36;;;;;;;5.13;2.70;;;;;;;7.89;100.00;94979.56;5061992;28;20040;-65
2024/03/10 08:57:09;;;;;;;5.55;2.78;;;;;;;7.98;100.00;94977.00;5073009;28;20104;-65
2024/03/10 08:59:35;;;;;;;6.30;2.47;;;;;;;7.98;100.00;94980.50;5062616;28;20043;-65
2024/03/10 09:02:02;;;;;;;3.85;2.10;;;;;;;8.06;100.00;94971.75;5063236;28;20048;-65
2024/03/10 09:04:30;;;;;;;4.55;2.33;;;;;;;8.13;100.00;94975.94;5065494;28;20047;-65
2024/03/10 09:06:57;;;;;;;7.00;3.08;;;;;;;8.18;100.00;94979.34;5064753;28;20116;-65
2024/03/10 09:09:23;;;;;;;5.35;2.55;;;;;;;8.25;100.00;94967.41;5067507;28;20101;-65
2024/03/10 09:11:51;;;;;;;4.53;2.20;;;;;;;8.21;100.00;94967.19;5057674;28;20033;-65
2024/03/10 09:14:18;;;;;;;4.78;2.75;;;;;;;8.26;100.00;94961.69;5075483;28;20051;-65
2024/03/10 09:16:45;;;;;;;6.03;2.65;;;;;;;8.46;99.27;94967.81;5060900;28;20527;-65
2024/03/10 09:19:13;;;;;;;4.68;2.22;;;;;;;8.73;98.60;94962.78;5069592;28;20093;-65
2024/03/10 09:21:39;;;;;;;5.63;2.58;;;;;;;8.88;97.10;94977.88;5056285;28;20048;-65
2024/03/10 09:24:06;;;;;;;4.75;2.50;;;;;;;8.82;98.87;94971.78;5057961;28;21729;-65
2024/03/10 09:26:32;;;;;;;4.35;2.42;;;;;;;8.78;96.82;94993.19;5066659;28;20036;-65
2024/03/10 09:29:01;;;;;;;4.25;2.30;;;;;;;9.00;94.48;95005.16;5068078;28;20040;-65
2024/03/10 09:31:28;;;;;;;3.90;2.08;;;;;;;9.10;91.99;95021.16;5060447;28;20040;-66
2024/03/10 09:33:54;;;;;;;4.60;2.38;;;;;;;9.27;92.26;95014.34;5061839;28;20064;-65
2024/03/10 09:36:23;;;;;;;3.55;2.15;;;;;;;9.24;89.57;95004.13;5056904;28;20043;-65
2024/03/10 09:38:52;;;;;;;3.75;2.22;;;;;;;9.09;89.58;95002.56;5056893;28;20040;-65
2024/03/10 09:41:19;;;;;;;3.78;2.17;;;;;;;9.12;90.13;94991.16;5069532;28;20522;-65
2024/03/10 09:43:50;;;;;;;4.05;2.28;;;;;;;9.13;90.94;94997.38;5061692;28;20036;-65
2024/03/10 09:46:17;;;;;;;5.78;2.30;;;;;;;9.26;90.16;94996.56;5071324;28;20040;-65
2024/03/10 09:48:45;;;;;;;4.78;2.30;;;;;;;9.17;91.00;94985.66;5065684;28;20041;-65
2024/03/10 09:51:15;;;;;;;4.53;2.40;;;;;;;9.30;89.78;94975.94;5072676;28;20067;-65
2024/03/10 09:53:43;;;;;;;5.50;2.45;;;;;;;9.20;89.70;94978.84;5060980;28;20037;-65
2024/03/10 09:56:14;;;;;;;3.83;2.03;;;;;;;9.30;89.51;94984.03;5071572;28;20047;-65
2024/03/10 09:58:47;;;;;;;4.28;2.10;;;;;;;9.39;90.15;94989.50;5067032;28;20120;-65
2024/03/10 10:01:20;;;;;;;3.92;2.33;;;;;;;9.36;88.93;94992.81;5052014;28;20047;-65
2024/03/10 10:03:49;;;;;;;4.20;2.10;;;;;;;9.43;87.70;94995.91;5068781;28;20722;-64
2024/03/10 10:06:18;;;;;;;4.13;1.98;;;;;;;9.63;86.52;94980.38;5070854;28;20050;-65
2024/03/10 10:08:54;;;;;;;4.75;2.08;;;;;;;9.76;86.79;94976.81;5061217;28;20120;-65
2024/03/10 10:11:25;;;;;;;3.95;2.20;;;;;;;9.77;86.51;94972.22;5057990;28;20044;-65
2024/03/10 10:14:10;;;;;;;5.38;2.30;;;;;;;9.72;87.43;94972.31;5071003;28;20434;-65
2024/03/10 10:16:37;;;;;;;5.38;2.38;;;;;;;9.80;89.03;94965.41;5074040;28;20046;-65
2024/03/10 10:19:15;;;;;;;5.40;2.92;;;;;;;9.78;89.40;94960.31;5065090;28;20068;-65
2024/03/10 10:21:44;;;;;;;4.57;2.63;;;;;;;9.79;89.40;94958.38;5066588;28;20049;-65
2024/03/10 10:24:11;;;;;;;6.07;3.10;;;;;;;9.85;89.87;94967.97;5069987;28;20048;-65
2024/03/10 10:26:40;;;;;;;6.00;3.00;;;;;;;9.80;89.82;94960.00;5066645;28;20084;-65
2024/03/10 10:29:09;;;;;;;5.93;2.90;;;;;;;9.88;88.48;94951.16;5072129;28;21315;-65
2024/03/10 10:31:37;;;;;;;4.78;2.60;;;;;;;9.89;88.42;94952.75;5065232;28;20499;-65
2024/03/10 10:34:06;;;;;;;5.53;2.88;;;;;;;10.19;87.07;94961.22;5070076;28;20587;-65
2024/03/10 10:36:37;;;;;;;5.35;2.95;;;;;;;10.08;86.24;94959.84;5074289;28;20047;-65
2024/03/10 10:39:08;;;;;;;5.72;2.58;;;;;;;9.80;88.89;94977.00;5063852;28;20068;-65
2024/03/10 10:41:36;;;;;;;7.97;3.65;;;;;;;10.02;88.13;94973.50;5066476;28;20391;-65
2024/03/10 10:44:06;;;;;;;8.60;3.17;;;;;;;10.30;87.13;94986.09;5065660;28;20095;-65
2024/03/10 10:46:38;;;;;;;7.15;3.35;;;;;;;10.17;88.46;94981.56;5074941;28;20047;-65
2024/03/10 10:49:04;;;;;;;5.25;2.65;;;;;;;9.93;88.12;94967.25;5070665;28;20156;-65
2024/03/10 10:51:33;;;;;;;6.05;2.55;;;;;;;9.96;88.16;94969.34;5067925;28;20048;-65
2024/03/10 10:54:09;;;;;;;6.72;2.83;;;;;;;10.27;86.67;94967.78;5056880;28;20041;-65
2024/03/10 10:56:36;;;;;;;5.63;3.10;;;;;;;10.18;87.71;94975.03;5059198;28;20089;-65
2024/03/10 10:59:03;;;;;;;5.47;2.80;;;;;;;9.83;88.14;94978.28;5069025;28;20047;-65
2024/03/10 11:01:29;;;;;;;5.50;3.15;;;;;;;10.10;87.75;94954.94;5071301;28;20116;-65
2024/03/10 11:03:57;;;;;;;8.93;3.97;;;;;;;9.88;89.83;94940.34;5066703;28;20054;-65
2024/03/10 11:06:27;;;;;;;6.20;3.22;;;;;;;10.04;89.60;94939.94;5071751;28;20519;-65
2024/03/10 11:08:55;;;;;;;5.20;2.90;;;;;;;10.18;88.38;94935.28;5061110;28;20037;-65
2024/03/10 11:11:44;;;;;;;5.50;3.30;;;;;;;10.46;87.62;94923.53;5065256;28;20048;-65
2024/03/10 11:14:16;;;;;;;5.65;3.10;;;;;;;10.35;87.59;94931.06;5069283;28;20044;-65
2024/03/10 11:16:44;;;;;;;6.88;3.10;;;;;;;10.47;86.43;94942.13;5066128;28;20047;-66
2024/03/10 11:19:15;;;;;;;5.32;2.70;;;;;;;10.59;85.17;94943.44;5066640;28;20558;-65
2024/03/10 11:21:44;;;;;;;5.55;2.58;;;;;;;10.46;86.37;94951.34;5066060;28;20041;-65
2024/03/10 11:24:20;;;;;;;4.72;2.60;;;;;;;10.66;83.84;94963.53;5069090;28;20048;-65
2024/03/10 11:26:48;;;;;;;6.28;2.63;;;;;;;10.46;85.46;94966.81;5062144;28;20125;-66
2024/03/10 11:29:26;;;;;;;5.88;3.33;;;;;;;10.58;85.39;94967.00;5062239;28;20044;-66
2024/03/10 11:31:56;;;;;;;4.15;2.50;;;;;;;10.69;84.06;94969.44;5067078;28;20048;-66
2024/03/10 11:34:24;;;;;;;4.28;2.50;;;;;;;10.86;82.03;94972.22;5064743;28;20047;-65
2024/03/10 11:36:51;;;;;;;3.78;2.15;;;;;;;10.97;80.66;94956.50;5060974;28;20052;-65
2024/03/10 11:39:21;;;;;;;5.10;2.78;;;;;;;10.84;81.61;94946.56;5061917;28;20098;-65
2024/03/10 11:41:49;;;;;;;3.70;2.07;;;;;;;11.00;81.27;94934.22;5066098;28;20494;-65
2024/03/10 11:44:16;;;;;;;4.40;2.00;;;;;;;10.94;81.81;94948.97;5058421;28;20044;-65
2024/03/10 11:46:43;;;;;;;4.43;2.25;;;;;;;10.95;82.24;94947.09;5066012;28;20037;-65
2024/03/10 11:49:12;;;;;;;5.07;2.70;;;;;;;11.10;82.56;94952.06;5055947;28;20063;-65
2024/03/10 11:51:39;;;;;;;7.35;3.00;;;;;;;11.07;82.09;94960.81;5063537;28;20044;-65
2024/03/10 11:54:11;;;;;;;4.60;2.20;;;;;;;11.14;83.21;94953.03;5065822;28;20044;-65
2024/03/10 11:56:39;;;;;;;5.60;2.38;;;;;;;11.43;80.40;94957.06;5057720;28;20041;-65
2024/03/10 11:59:06;;;;;;;4.72;2.42;;;;;;;11.67;77.55;94966.66;5063284;28;20049;-66
2024/03/10 12:01:33;;;;;;;4.85;2.20;;;;;;;11.55;78.18;94978.13;5059011;28;20051;-66